Time;durP1;ratioP1;P1;durP2;ratioP2;P2;SDS_P1;SDS_P2;PMS_P1;PMS_P2;Temp;Humidity;BMP_temperature;BMP_pressure;BME280_temperature;BME280_humidity;BME280_pressure;Samples;Min_cycle;Max_cycle;Signal;HPM_P1;HPM_P2
2022/07/06 00:00:56;;;;;;;6.55;5.95;;;;;;;26.31;60.36;94618.44;4933743;29;20202;-84
2022/07/06 00:03:23;;;;;;;8.75;6.20;;;;;;;26.30;60.76;94622.09;4917243;29;20200;-86
2022/07/06 00:05:50;;;;;;;7.13;6.45;;;;;;;26.26;60.55;94613.91;4915090;29;20223;-87
2022/07/06 00:08:17;;;;;;;8.23;5.53;;;;;;;26.25;60.85;94622.78;4914782;29;20235;-83
2022/07/06 00:10:44;;;;;;;6.13;5.50;;;;;;;26.23;60.89;94620.41;4915082;29;20212;-82
2022/07/06 00:13:12;;;;;;;9.27;5.18;;;;;;;26.21;61.17;94632.16;4914972;29;20638;-84
2022/07/06 00:15:39;;;;;;;7.00;5.50;;;;;;;26.17;60.97;94626.59;4933532;29;20647;-86
2022/07/06 00:18:06;;;;;;;6.60;5.70;;;;;;;26.16;61.61;94627.59;4932873;29;20195;-88
2022/07/06 00:20:33;;;;;;;7.72;5.53;;;;;;;26.15;61.27;94638.34;4933706;29;20719;-87
2022/07/06 00:22:59;;;;;;;12.50;6.65;;;;;;;26.05;61.56;94631.09;4933577;29;20206;-77
2022/07/06 00:25:26;;;;;;;7.07;6.18;;;;;;;26.11;61.87;94647.72;4934107;29;20227;-84
2022/07/06 00:29:35;;;;;;;6.63;5.82;;;;;;;26.06;61.75;94658.09;5112788;27;20556;-83
2022/07/06 00:32:02;;;;;;;6.07;5.57;;;;;;;26.03;61.96;94656.72;5111317;28;20181;-88
2022/07/06 00:34:29;;;;;;;9.15;6.38;;;;;;;26.02;62.34;94666.44;5093020;28;20576;-88
2022/07/06 00:36:56;;;;;;;9.82;5.68;;;;;;;26.01;62.25;94670.09;5087976;28;20193;-84
2022/07/06 00:39:28;;;;;;;7.88;6.10;;;;;;;25.98;61.96;94660.06;5088105;28;20545;-85
2022/07/06 00:41:55;;;;;;;6.82;5.90;;;;;;;25.94;62.31;94655.53;5087826;28;20193;-87
2022/07/06 00:44:22;;;;;;;7.10;5.93;;;;;;;25.89;62.40;94653.59;5088084;28;20619;-82
2022/07/06 00:46:50;;;;;;;6.82;5.63;;;;;;;25.93;62.17;94659.19;5089168;28;20189;-82
2022/07/06 00:51:59;;;;;;;6.57;5.85;;;;;;;25.92;62.57;94658.38;5090710;28;20177;-86
2022/07/06 00:54:26;;;;;;;6.25;5.65;;;;;;;25.89;62.48;94644.94;5088262;28;20189;-86
2022/07/06 00:56:53;;;;;;;7.20;6.32;;;;;;;25.81;62.73;94634.84;5102431;28;20189;-87
2022/07/06 00:59:20;;;;;;;7.15;6.40;;;;;;;25.86;62.53;94642.78;5107885;28;20575;-86
2022/07/06 01:01:47;;;;;;;8.45;5.82;;;;;;;25.84;62.42;94624.69;5108096;28;20196;-82
2022/07/06 01:04:15;;;;;;;7.03;6.35;;;;;;;25.82;62.50;94610.22;5107841;28;20238;-87
2022/07/06 01:06:42;;;;;;;7.78;6.50;;;;;;;25.79;62.63;94606.25;5107471;28;20212;-86
2022/07/06 01:09:09;;;;;;;6.70;5.78;;;;;;;25.70;62.62;94600.56;5107595;28;20228;-86
2022/07/06 01:11:36;;;;;;;7.00;6.30;;;;;;;25.73;62.51;94604.53;5106177;28;20812;-87
2022/07/06 01:14:03;;;;;;;7.35;6.20;;;;;;;25.70;62.58;94613.66;5093378;28;20182;-84
2022/07/06 01:16:31;;;;;;;7.45;6.40;;;;;;;25.63;62.48;94601.72;5087420;28;20188;-86
2022/07/06 01:18:57;;;;;;;8.57;5.82;;;;;;;25.64;62.58;94611.19;5086995;28;20190;-82
2022/07/06 01:21:26;;;;;;;8.82;6.63;;;;;;;25.59;62.69;94604.03;5087140;28;20186;-86
2022/07/06 01:23:52;;;;;;;6.70;6.07;;;;;;;25.57;63.02;94606.09;5086759;28;20182;-80
2022/07/06 01:26:21;;;;;;;6.65;6.03;;;;;;;25.54;63.04;94611.78;5086612;28;20193;-84
2022/07/06 01:28:50;;;;;;;9.25;6.78;;;;;;;25.50;62.96;94611.44;5086477;28;20690;-87
2022/07/06 01:31:20;;;;;;;7.35;6.55;;;;;;;25.47;63.00;94609.28;5086809;28;20217;-87
2022/07/06 01:33:47;;;;;;;7.70;6.25;;;;;;;25.45;63.34;94610.56;5099437;28;20254;-85
2022/07/06 01:36:14;;;;;;;8.23;6.30;;;;;;;25.39;63.10;94606.22;5107012;28;20557;-82
2022/07/06 01:38:50;;;;;;;6.22;5.72;;;;;;;25.38;63.17;94615.13;5106661;28;20193;-85
2022/07/06 01:41:17;;;;;;;6.43;5.75;;;;;;;25.16;63.14;94584.31;5092396;28;20185;-87
2022/07/06 01:43:44;;;;;;;6.82;6.13;;;;;;;25.26;63.53;94605.50;5092980;28;20603;-85
2022/07/06 01:46:11;;;;;;;6.50;5.63;;;;;;;25.30;63.57;94605.81;5093329;28;20182;-86
2022/07/06 01:48:38;;;;;;;11.00;6.25;;;;;;;25.27;63.72;94603.66;5093788;28;20218;-86
2022/07/06 01:51:06;;;;;;;8.57;6.25;;;;;;;25.25;63.87;94605.69;5094552;28;20235;-87
2022/07/06 01:53:33;;;;;;;7.80;5.93;;;;;;;25.22;63.74;94606.19;5093241;28;20235;-87
2022/07/06 01:56:01;;;;;;;7.43;6.20;;;;;;;25.17;63.84;94612.13;5092938;28;20243;-79
2022/07/06 01:58:28;;;;;;;6.22;5.63;;;;;;;25.18;63.63;94618.94;5093500;28;20189;-86
2022/07/06 02:00:54;;;;;;;7.45;6.03;;;;;;;25.14;63.91;94615.19;5094803;28;20197;-85
2022/07/06 02:03:21;;;;;;;7.28;6.57;;;;;;;25.12;63.85;94613.81;5093436;28;20201;-84
2022/07/06 02:05:48;;;;;;;6.07;5.47;;;;;;;24.98;64.00;94593.09;5094563;28;20182;-88
2022/07/06 02:08:15;;;;;;;6.35;5.75;;;;;;;25.00;63.84;94603.34;5094655;28;20700;-89
2022/07/06 02:10:41;;;;;;;5.95;5.22;;;;;;;25.05;63.93;94613.91;5080687;28;20665;-84
2022/07/06 02:13:10;;;;;;;6.60;6.00;;;;;;;24.98;64.00;94603.56;5087098;28;20234;-86
2022/07/06 02:15:36;;;;;;;6.65;5.90;;;;;;;24.98;64.05;94608.78;5096277;28;20198;-87
2022/07/06 02:18:03;;;;;;;9.55;6.25;;;;;;;24.96;63.74;94604.81;5094312;28;20774;-85
2022/07/06 02:20:30;;;;;;;7.72;5.07;;;;;;;24.91;64.04;94610.72;5089180;28;20205;-85
2022/07/06 02:22:57;;;;;;;10.23;6.32;;;;;;;24.91;63.85;94612.53;5073035;28;20256;-86
2022/07/06 02:25:24;;;;;;;6.60;5.80;;;;;;;24.89;63.64;94607.53;5072763;28;20186;-84
2022/07/06 02:27:51;;;;;;;8.15;5.97;;;;;;;24.87;63.68;94603.56;5072713;28;20222;-87
2022/07/06 02:30:20;;;;;;;5.95;5.45;;;;;;;24.84;63.80;94609.25;5072320;28;20658;-87
2022/07/06 02:32:46;;;;;;;5.55;5.15;;;;;;;24.82;63.91;94598.22;5080711;28;20189;-86
2022/07/06 02:35:13;;;;;;;6.22;5.63;;;;;;;24.79;63.79;94607.34;5093799;28;20280;-85
2022/07/06 02:37:40;;;;;;;6.32;5.45;;;;;;;24.76;63.94;94605.97;5095689;28;20223;-81
2022/07/06 02:40:08;;;;;;;6.65;5.97;;;;;;;24.75;63.80;94603.56;5094848;28;20193;-81
2022/07/06 02:42:35;;;;;;;6.22;5.63;;;;;;;24.71;63.93;94595.38;5094047;28;20243;-87
2022/07/06 02:45:02;;;;;;;6.22;5.63;;;;;;;24.70;63.89;94598.25;5104387;28;20189;-79
2022/07/06 02:47:30;;;;;;;6.28;5.75;;;;;;;24.70;63.93;94603.47;5092600;28;20669;-86
2022/07/06 02:49:57;;;;;;;8.35;6.13;;;;;;;24.65;64.03;94596.28;5093473;28;20607;-80
2022/07/06 02:52:24;;;;;;;6.28;5.78;;;;;;;24.67;63.95;94603.91;5085147;28;20689;-86
2022/07/06 02:54:51;;;;;;;5.88;5.28;;;;;;;24.64;63.78;94605.16;5073906;28;20194;-86
2022/07/06 02:57:18;;;;;;;6.43;5.88;;;;;;;24.63;64.25;94603.56;5071971;28;20194;-87
2022/07/06 02:59:45;;;;;;;6.60;6.00;;;;;;;24.62;64.04;94603.81;5071928;28;20202;-82
2022/07/06 03:02:13;;;;;;;6.75;6.15;;;;;;;24.59;64.08;94605.03;5071782;28;20483;-87
2022/07/06 03:04:41;;;;;;;6.35;5.75;;;;;;;24.59;64.14;94610.28;5071614;28;20665;-85
2022/07/06 03:07:08;;;;;;;7.43;5.97;;;;;;;24.58;63.91;94603.47;5071167;28;20187;-83
2022/07/06 03:09:34;;;;;;;6.88;6.28;;;;;;;24.46;63.81;94595.59;5071994;28;20275;-87
2022/07/06 03:12:01;;;;;;;6.45;5.85;;;;;;;24.51;64.09;94600.94;5077125;28;20254;-86
2022/07/06 03:14:28;;;;;;;6.47;5.88;;;;;;;24.56;64.03;94615.16;5091948;28;20192;-85
2022/07/06 03:16:55;;;;;;;6.70;6.10;;;;;;;24.51;64.22;94605.38;5091728;28;20197;-85
2022/07/06 03:19:22;;;;;;;6.70;6.10;;;;;;;24.56;64.07;94615.16;5091576;28;20185;-85
2022/07/06 03:21:50;;;;;;;8.63;6.43;;;;;;;24.53;64.06;94619.81;5087542;28;20190;-86
2022/07/06 03:24:17;;;;;;;6.70;6.10;;;;;;;24.56;63.92;94623.78;5073775;28;20681;-83
2022/07/06 03:26:44;;;;;;;8.90;6.55;;;;;;;24.56;63.83;94623.78;5077966;28;20198;-86
2022/07/06 03:29:11;;;;;;;7.47;6.35;;;;;;;24.58;64.12;94626.19;5076785;28;20304;-82
2022/07/06 03:31:37;;;;;;;7.03;6.32;;;;;;;24.59;63.96;94630.41;5078576;28;20209;-82
2022/07/06 03:34:04;;;;;;;9.82;6.30;;;;;;;24.61;64.02;94636.19;5096402;28;20189;-84
2022/07/06 03:36:31;;;;;;;6.75;6.10;;;;;;;24.63;63.86;94634.16;5089141;28;20193;-81
2022/07/06 03:38:59;;;;;;;9.55;6.18;;;;;;;24.62;63.58;94635.19;5071784;28;20645;-87
2022/07/06 03:41:26;;;;;;;9.20;6.32;;;;;;;24.69;63.73;94635.84;5072734;28;20190;-83
2022/07/06 03:43:53;;;;;;;6.53;5.93;;;;;;;24.71;63.90;94636.44;5090879;28;20672;-83
2022/07/06 03:46:19;;;;;;;8.23;5.75;;;;;;;24.75;63.57;94637.59;5091082;28;20182;-86
2022/07/06 03:48:46;;;;;;;7.65;5.95;;;;;;;24.66;63.69;94624.03;5077410;28;20218;-86
2022/07/06 03:51:13;;;;;;;6.03;5.53;;;;;;;24.80;63.52;94637.69;5074013;28;20182;-83
2022/07/06 03:53:40;;;;;;;6.07;5.57;;;;;;;24.84;63.34;94640.66;5091102;28;20284;-86
2022/07/06 03:58:53;;;;;;;6.35;5.38;;;;;;;24.79;63.35;94617.78;5091043;28;20243;-84
2022/07/06 04:01:19;;;;;;;6.90;5.43;;;;;;;24.93;63.28;94640.06;5090939;28;20200;-81
2022/07/06 04:03:46;;;;;;;5.97;5.38;;;;;;;24.98;63.26;94639.38;5071458;28;20194;-86
2022/07/06 04:06:14;;;;;;;7.43;5.60;;;;;;;25.02;63.23;94648.38;5070320;28;20189;-86
2022/07/06 04:08:41;;;;;;;5.63;5.10;;;;;;;25.08;62.83;94650.09;5071218;28;20708;-87
2022/07/06 04:11:09;;;;;;;5.25;4.75;;;;;;;25.14;62.52;94651.81;5071101;28;20187;-86
2022/07/06 04:13:36;;;;;;;5.82;5.15;;;;;;;25.19;62.52;94651.94;5070854;28;20190;-87
2022/07/06 04:16:04;;;;;;;5.15;4.70;;;;;;;25.25;62.20;94653.63;5072629;28;20874;-85
2022/07/06 04:18:30;;;;;;;5.45;4.95;;;;;;;25.31;62.29;94645.88;5071208;28;20179;-86
2022/07/06 04:20:58;;;;;;;4.85;4.35;;;;;;;25.36;62.21;94654.63;5075810;28;20201;-86
2022/07/06 04:23:25;;;;;;;5.35;4.85;;;;;;;25.34;61.78;94640.97;5090761;28;20684;-84
2022/07/06 04:25:52;;;;;;;5.60;4.90;;;;;;;25.43;62.04;94647.47;5090391;28;20201;-83
2022/07/06 04:28:20;;;;;;;4.88;4.38;;;;;;;25.52;61.74;94655.75;5089776;28;20282;-82
2022/07/06 04:30:47;;;;;;;4.60;4.18;;;;;;;25.58;61.63;94667.13;5090193;28;20189;-86
2022/07/06 04:33:14;;;;;;;5.60;4.40;;;;;;;25.62;61.67;94668.25;5091113;28;20190;-80
2022/07/06 04:35:40;;;;;;;5.63;4.05;;;;;;;25.71;61.53;94670.25;5091084;28;20190;-78
2022/07/06 04:38:07;;;;;;;5.07;4.25;;;;;;;25.82;61.14;94673.94;5092440;28;20189;-86
2022/07/06 04:40:34;;;;;;;5.20;4.60;;;;;;;25.94;60.45;94668.63;5078526;28;20213;-80
2022/07/06 04:43:01;;;;;;;6.25;5.22;;;;;;;26.03;60.43;94672.47;5071616;28;20224;-87
2022/07/06 04:45:29;;;;;;;6.38;4.45;;;;;;;26.18;60.08;94695.56;5071887;28;20182;-82
2022/07/06 04:47:56;;;;;;;5.85;4.57;;;;;;;26.17;59.93;94701.84;5073146;28;20289;-87
2022/07/06 04:50:23;;;;;;;6.97;5.35;;;;;;;26.18;60.19;94714.69;5082559;28;20307;-82
2022/07/06 04:52:50;;;;;;;6.07;5.47;;;;;;;26.13;60.28;94708.56;5091883;28;20688;-86
2022/07/06 04:55:16;;;;;;;6.95;5.10;;;;;;;26.18;60.46;94708.66;5090819;28;20738;-85
2022/07/06 04:57:44;;;;;;;7.03;5.03;;;;;;;26.15;60.67;94711.75;5091131;28;20189;-86
2022/07/06 05:00:12;;;;;;;9.77;5.75;;;;;;;26.20;60.79;94719.69;5081304;28;20191;-81
2022/07/06 05:02:41;;;;;;;6.07;5.25;;;;;;;26.24;60.42;94719.00;5081866;28;20197;-78
2022/07/06 05:05:09;;;;;;;7.65;6.53;;;;;;;26.39;60.38;94728.97;5070064;28;20191;-81
2022/07/06 05:07:39;;;;;;;8.63;6.22;;;;;;;26.48;60.03;94714.47;5069857;28;20294;-82
2022/07/06 05:10:07;;;;;;;7.00;6.28;;;;;;;26.53;59.87;94719.00;5081357;28;20221;-82
2022/07/06 05:12:34;;;;;;;11.48;7.55;;;;;;;26.61;59.74;94726.50;5089856;28;20296;-82
2022/07/06 05:15:01;;;;;;;8.38;7.18;;;;;;;26.64;59.33;94730.47;5091852;28;20182;-83
2022/07/06 05:17:28;;;;;;;8.82;7.15;;;;;;;26.65;59.47;94734.69;5093706;28;20660;-83
2022/07/06 05:19:56;;;;;;;7.47;6.78;;;;;;;26.67;59.46;94727.38;5084101;28;20190;-83
2022/07/06 05:22:24;;;;;;;11.07;7.30;;;;;;;26.69;59.70;94739.22;5073409;28;20193;-82
2022/07/06 05:24:50;;;;;;;8.32;6.80;;;;;;;26.72;59.28;94730.06;5072855;28;20194;-82
2022/07/06 05:27:18;;;;;;;7.30;6.35;;;;;;;26.81;59.65;94739.16;5073408;28;20190;-83
2022/07/06 05:29:44;;;;;;;7.13;6.43;;;;;;;26.94;60.21;94741.50;5073039;28;20218;-85
2022/07/06 05:32:11;;;;;;;7.72;6.45;;;;;;;27.08;60.18;94738.53;5072922;28;20194;-83
2022/07/06 05:34:39;;;;;;;9.30;6.43;;;;;;;27.29;60.92;94735.22;5072985;28;20186;-83
2022/07/06 05:37:08;;;;;;;10.90;5.97;;;;;;;27.57;61.30;94739.53;5073053;28;20190;-83
2022/07/06 05:39:35;;;;;;;7.57;6.35;;;;;;;27.89;60.97;94750.25;5083263;28;20554;-85
2022/07/06 05:42:01;;;;;;;10.50;6.07;;;;;;;28.15;60.10;94746.06;5093591;28;20193;-83
2022/07/06 05:44:28;;;;;;;6.28;5.68;;;;;;;28.37;59.39;94753.97;5092263;28;20613;-83
2022/07/06 05:50:11;;;;;;;7.88;6.43;;;;;;;28.58;58.68;94754.94;5092847;28;20178;-80
2022/07/06 05:52:27;;;;;;;6.68;6.03;;;;;;;29.42;59.03;94753.56;5093130;28;20197;-82
2022/07/06 05:54:54;;;;;;;6.40;5.75;;;;;;;29.86;58.24;94748.81;5092584;28;20213;-82
2022/07/06 05:57:21;;;;;;;7.90;6.13;;;;;;;30.31;56.65;94749.25;5093163;28;20202;-82
2022/07/06 05:59:48;;;;;;;9.40;5.57;;;;;;;30.63;55.34;94746.44;5084894;28;20205;-83
2022/07/06 06:02:15;;;;;;;6.13;5.53;;;;;;;30.96;54.32;94753.13;5072947;28;20207;-84
2022/07/06 06:04:41;;;;;;;5.65;5.15;;;;;;;31.18;52.97;94753.63;5072129;28;20622;-83
2022/07/06 06:07:08;;;;;;;7.65;5.32;;;;;;;31.21;52.26;94734.59;5072752;28;20194;-81
2022/07/06 06:09:36;;;;;;;5.72;5.15;;;;;;;31.40;52.09;94750.72;5072492;28;20206;-82
2022/07/06 06:12:04;;;;;;;5.85;5.25;;;;;;;31.39;51.24;94749.16;5072006;28;20195;-80
2022/07/06 06:14:30;;;;;;;5.68;5.25;;;;;;;31.42;51.32;94753.09;5067303;28;20202;-82
2022/07/06 06:16:57;;;;;;;9.65;5.40;;;;;;;31.21;50.79;94728.50;5070045;28;20721;-82
2022/07/06 06:19:27;;;;;;;6.97;5.65;;;;;;;31.29;50.43;94758.94;5070394;28;20186;-80
2022/07/06 06:21:54;;;;;;;8.40;5.20;;;;;;;31.18;50.74;94758.91;5070668;28;20658;-81
2022/07/06 06:24:23;;;;;;;5.88;5.20;;;;;;;31.07;50.23;94751.25;5068246;28;20198;-81
2022/07/06 06:26:52;;;;;;;6.28;4.70;;;;;;;30.84;49.98;94737.53;5068824;28;20204;-80
2022/07/06 06:29:19;;;;;;;5.75;5.13;;;;;;;30.80;50.07;94752.31;5071125;28;20283;-79
2022/07/06 06:31:47;;;;;;;6.60;5.45;;;;;;;30.64;50.17;94754.09;5071457;28;20669;-77
2022/07/06 06:34:14;;;;;;;6.57;5.47;;;;;;;30.57;49.98;94752.75;5070435;28;20198;-79
2022/07/06 06:36:41;;;;;;;6.38;5.82;;;;;;;30.48;50.20;94750.66;5071326;28;20190;-82
2022/07/06 06:39:08;;;;;;;7.50;6.18;;;;;;;30.41;49.85;94752.75;5071001;28;20202;-82
2022/07/06 06:41:35;;;;;;;10.45;6.60;;;;;;;30.33;49.91;94744.53;5071216;28;20201;-83
2022/07/06 06:44:03;;;;;;;8.10;6.05;;;;;;;30.28;50.23;94737.41;5072009;28;20206;-82
2022/07/06 06:46:30;;;;;;;6.63;5.90;;;;;;;30.29;50.08;94741.63;5071383;28;20663;-82
2022/07/06 06:48:58;;;;;;;6.70;5.70;;;;;;;30.49;50.45;94739.03;5071434;28;20182;-82
2022/07/06 06:51:25;;;;;;;6.55;5.90;;;;;;;30.70;51.50;94733.75;5070730;28;20643;-83
2022/07/06 06:53:52;;;;;;;8.57;6.45;;;;;;;31.00;52.00;94740.94;5071044;28;20297;-81
2022/07/06 06:56:19;;;;;;;6.53;5.93;;;;;;;31.21;51.42;94739.88;5070724;28;20264;-82
2022/07/06 06:58:46;;;;;;;8.50;6.28;;;;;;;31.32;50.45;94732.78;5070744;28;20201;-82
2022/07/06 07:01:14;;;;;;;7.15;6.45;;;;;;;31.41;50.42;94735.66;5070546;28;20209;-81
2022/07/06 07:03:41;;;;;;;6.28;5.78;;;;;;;31.44;49.87;94738.56;5070692;28;20273;-81
2022/07/06 07:06:08;;;;;;;7.75;6.55;;;;;;;31.44;49.89;94737.78;5071068;28;20646;-83
2022/07/06 07:08:35;;;;;;;8.63;6.70;;;;;;;31.35;49.85;94726.97;5072122;28;20269;-82
2022/07/06 07:11:01;;;;;;;6.38;5.82;;;;;;;31.32;49.39;94734.63;5070709;28;20210;-82
2022/07/06 07:13:28;;;;;;;8.13;6.25;;;;;;;31.31;49.14;94740.97;5069986;28;20190;-82
2022/07/06 07:15:55;;;;;;;6.95;6.25;;;;;;;31.25;49.04;94737.50;5069993;28;20191;-82
2022/07/06 07:18:23;;;;;;;7.13;6.43;;;;;;;31.19;49.21;94738.56;5069953;28;20198;-82
2022/07/06 07:20:50;;;;;;;9.05;7.57;;;;;;;31.12;48.84;94744.09;5070587;28;20202;-84
2022/07/06 07:23:17;;;;;;;12.30;7.47;;;;;;;30.95;48.76;94731.16;5071349;28;20193;-83
2022/07/06 07:25:44;;;;;;;7.70;6.85;;;;;;;30.93;49.17;94733.28;5070373;28;20281;-85
2022/07/06 07:28:11;;;;;;;8.55;6.85;;;;;;;30.95;48.95;94733.03;5075956;28;20218;-85
2022/07/06 07:30:38;;;;;;;7.68;7.05;;;;;;;30.95;48.62;94738.31;5071090;28;20225;-86
2022/07/06 07:33:05;;;;;;;8.13;6.68;;;;;;;30.80;48.70;94711.91;5070575;28;20198;-82
2022/07/06 07:35:33;;;;;;;8.02;7.30;;;;;;;31.04;48.95;94736.72;5071196;28;20190;-83
2022/07/06 07:38:00;;;;;;;7.75;6.93;;;;;;;31.15;48.78;94742.81;5070983;28;20281;-91
2022/07/06 07:40:27;;;;;;;8.63;7.30;;;;;;;31.21;48.69;94739.88;5071059;28;20669;-83
2022/07/06 07:42:53;;;;;;;7.38;6.78;;;;;;;31.28;48.26;94738.81;5071495;28;20195;-79
2022/07/06 07:45:20;;;;;;;9.27;7.75;;;;;;;31.34;48.33;94743.06;5071894;28;20186;-85
2022/07/06 07:47:47;;;;;;;8.95;7.75;;;;;;;31.37;48.27;94731.97;5072447;28;20205;-82
2022/07/06 07:50:14;;;;;;;9.57;7.78;;;;;;;31.46;47.72;94739.09;5073805;28;20273;-84
2022/07/06 07:52:43;;;;;;;8.80;7.90;;;;;;;31.31;48.13;94683.63;5076395;28;20197;-86
2022/07/06 07:55:10;;;;;;;8.48;7.75;;;;;;;31.84;49.02;94733.47;5067603;28;20190;-84
2022/07/06 07:57:37;;;;;;;8.23;7.38;;;;;;;32.15;48.71;94726.19;5068144;28;20627;-82
2022/07/06 08:00:05;;;;;;;8.20;7.05;;;;;;;32.55;48.11;94735.00;5068179;28;20293;-77
2022/07/06 08:02:32;;;;;;;8.30;7.10;;;;;;;32.86;48.01;94727.63;5066470;28;20187;-83
2022/07/06 08:04:59;;;;;;;8.43;6.95;;;;;;;33.23;47.84;94719.13;5067328;28;20205;-84
2022/07/06 08:07:26;;;;;;;8.68;6.82;;;;;;;33.67;47.21;94729.59;5067723;28;20182;-78
2022/07/06 08:09:54;;;;;;;7.13;6.43;;;;;;;34.11;46.48;94727.78;5067830;28;20225;-82
2022/07/06 08:12:21;;;;;;;7.30;6.65;;;;;;;34.49;45.40;94727.84;5068725;28;20692;-80
2022/07/06 08:14:48;;;;;;;7.65;6.88;;;;;;;34.97;44.24;94735.63;5067069;28;20643;-80
2022/07/06 08:17:15;;;;;;;7.40;5.88;;;;;;;35.38;43.25;94739.22;5067374;28;20194;-81
2022/07/06 08:19:42;;;;;;;6.32;5.53;;;;;;;35.78;42.74;94742.22;5068377;28;20201;-84
2022/07/06 08:22:09;;;;;;;7.03;6.38;;;;;;;36.18;41.79;94738.03;5067116;28;20194;-85
2022/07/06 08:24:36;;;;;;;8.40;6.65;;;;;;;36.56;41.20;94742.28;5068126;28;20179;-82
2022/07/06 08:27:05;;;;;;;12.40;6.60;;;;;;;36.92;40.29;94739.66;5066608;28;20251;-82
2022/07/06 08:29:32;;;;;;;6.93;6.18;;;;;;;37.29;39.26;94737.66;5067203;28;20222;-81
2022/07/06 08:31:59;;;;;;;7.00;6.30;;;;;;;37.61;38.77;94734.72;5066798;28;20237;-84
2022/07/06 08:34:26;;;;;;;8.60;6.43;;;;;;;38.00;38.00;94735.03;5066702;28;20193;-79
2022/07/06 08:36:53;;;;;;;7.57;6.40;;;;;;;38.29;37.71;94734.47;5066582;28;20201;-82
2022/07/06 08:39:20;;;;;;;7.00;6.30;;;;;;;38.42;37.13;94728.22;5067213;28;20589;-81
2022/07/06 08:41:49;;;;;;;10.70;6.53;;;;;;;38.50;36.83;94732.00;5066443;28;20661;-83
2022/07/06 08:44:18;;;;;;;6.90;6.20;;;;;;;38.60;36.08;94731.69;5067299;28;20197;-84
2022/07/06 08:46:45;;;;;;;10.38;6.13;;;;;;;38.61;35.73;94726.03;5067274;28;20620;-81
2022/07/06 08:49:16;;;;;;;8.45;6.35;;;;;;;38.74;35.76;94720.84;5069468;28;20217;-84
2022/07/06 08:51:43;;;;;;;7.75;6.95;;;;;;;38.82;35.90;94733.44;5070532;28;20214;-84
2022/07/06 08:54:12;;;;;;;7.88;7.07;;;;;;;38.80;35.75;94731.09;5070747;28;20205;-81
2022/07/06 08:56:39;;;;;;;8.00;7.20;;;;;;;38.74;35.87;94732.34;5070453;28;20213;-80
2022/07/06 08:59:08;;;;;;;7.18;6.47;;;;;;;38.69;35.48;94726.34;5070542;28;20206;-83
2022/07/06 09:01:37;;;;;;;8.27;6.80;;;;;;;38.57;35.43;94717.06;5070721;28;20190;-80
2022/07/06 09:04:06;;;;;;;9.20;7.35;;;;;;;38.69;35.54;94731.69;5070893;28;20202;-82
2022/07/06 09:06:35;;;;;;;7.18;6.47;;;;;;;38.70;35.39;94730.59;5070062;28;20736;-85
2022/07/06 09:09:07;;;;;;;7.28;6.57;;;;;;;38.65;35.29;94726.22;5067870;28;20190;-81
2022/07/06 09:11:35;;;;;;;6.85;6.25;;;;;;;38.69;35.80;94729.00;5070721;28;20773;-81
2022/07/06 09:14:02;;;;;;;7.65;6.55;;;;;;;38.68;35.97;94736.25;5070264;28;20935;-81
2022/07/06 09:16:30;;;;;;;8.15;6.38;;;;;;;38.58;35.93;94725.88;5071406;28;20198;-79
2022/07/06 09:18:59;;;;;;;7.97;6.35;;;;;;;38.56;35.48;94725.41;5070707;28;20197;-82
2022/07/06 09:21:26;;;;;;;7.93;6.30;;;;;;;38.52;35.60;94733.28;5070241;28;20205;-80
2022/07/06 09:23:56;;;;;;;11.82;6.82;;;;;;;38.45;35.75;94726.81;5071141;28;20189;-82
2022/07/06 09:26:24;;;;;;;7.35;6.63;;;;;;;38.39;35.94;94732.31;5073427;28;20193;-79
2022/07/06 09:28:50;;;;;;;7.80;6.95;;;;;;;38.26;36.21;94738.56;5070211;28;20237;-82
2022/07/06 09:31:18;;;;;;;7.93;6.75;;;;;;;38.11;36.33;94729.09;5072046;28;20209;-82
2022/07/06 09:34:01;;;;;;;8.20;6.82;;;;;;;37.93;36.37;94724.81;5072927;28;20546;-85
2022/07/06 09:36:39;;;;;;;12.23;7.55;;;;;;;37.82;36.35;94723.47;5070592;28;20202;-79
2022/07/06 09:39:20;;;;;;;7.78;6.97;;;;;;;37.62;36.50;94714.16;5073120;28;20198;-82
2022/07/06 09:41:47;;;;;;;8.63;7.05;;;;;;;37.57;36.67;94723.09;5072298;28;20190;-79
2022/07/06 09:44:19;;;;;;;7.60;6.97;;;;;;;37.45;36.72;94720.22;5072217;28;20194;-79
2022/07/06 09:46:48;;;;;;;9.60;7.07;;;;;;;37.38;37.01;94730.50;5072063;28;20298;-80
2022/07/06 09:49:19;;;;;;;9.75;7.20;;;;;;;37.32;37.30;94726.38;5071808;28;20700;-79
2022/07/06 09:51:47;;;;;;;7.75;7.15;;;;;;;37.23;37.32;94722.91;5071888;28;20720;-80
2022/07/06 09:54:13;;;;;;;11.10;7.38;;;;;;;37.11;37.31;94713.56;5072232;28;20650;-80
2022/07/06 09:56:42;;;;;;;8.45;7.65;;;;;;;36.91;37.72;94698.81;5071712;28;20193;-79
2022/07/06 09:59:10;;;;;;;9.23;8.43;;;;;;;36.89;37.16;94710.88;5071524;28;20202;-79
2022/07/06 10:01:38;;;;;;;11.25;8.27;;;;;;;36.83;37.65;94720.06;5071349;28;20198;-78
2022/07/06 10:04:06;;;;;;;8.65;7.78;;;;;;;36.71;37.69;94725.97;5071449;28;20190;-76
2022/07/06 10:06:35;;;;;;;9.23;8.23;;;;;;;36.61;37.92;94720.84;5071820;28;20194;-78
2022/07/06 10:09:06;;;;;;;9.13;8.32;;;;;;;36.46;38.15;94711.34;5071698;28;20224;-78
2022/07/06 10:11:35;;;;;;;9.45;8.55;;;;;;;36.24;38.24;94705.94;5072201;28;20723;-76
2022/07/06 10:14:04;;;;;;;11.40;8.05;;;;;;;36.23;38.79;94720.31;5071532;28;20285;-79
2022/07/06 10:16:32;;;;;;;9.27;8.45;;;;;;;36.03;38.71;94705.59;5071492;28;20225;-76
2022/07/06 10:19:02;;;;;;;8.48;7.78;;;;;;;36.02;38.67;94712.78;5070969;28;20194;-80
2022/07/06 10:21:30;;;;;;;8.05;7.30;;;;;;;35.92;38.88;94705.75;5071250;28;20198;-79
2022/07/06 10:23:59;;;;;;;8.65;7.95;;;;;;;35.80;38.82;94702.03;5071426;28;20214;-79
2022/07/06 10:26:26;;;;;;;9.02;8.23;;;;;;;35.74;38.67;94697.88;5071285;28;20202;-77
2022/07/06 10:28:54;;;;;;;8.50;7.75;;;;;;;35.64;39.15;94698.88;5070793;28;20233;-80
2022/07/06 10:31:22;;;;;;;9.50;8.50;;;;;;;35.51;38.80;94691.69;5071148;28;20639;-77
2022/07/06 10:33:49;;;;;;;9.77;8.35;;;;;;;35.50;39.19;94693.56;5071248;28;20191;-80
2022/07/06 10:36:16;;;;;;;8.45;7.75;;;;;;;35.42;39.52;94702.19;5071377;28;20618;-78
2022/07/06 10:38:49;;;;;;;10.15;8.95;;;;;;;35.34;39.59;94689.56;5070987;28;20201;-78
2022/07/06 10:41:18;;;;;;;9.30;8.50;;;;;;;35.16;39.63;94681.34;5070994;28;20209;-76
2022/07/06 10:43:46;;;;;;;9.45;8.65;;;;;;;35.16;39.62;94694.66;5070978;28;20403;-79
2022/07/06 10:46:15;;;;;;;9.40;8.60;;;;;;;35.07;40.14;94698.28;5070673;28;20186;-78
2022/07/06 10:48:43;;;;;;;10.27;8.13;;;;;;;35.02;40.03;94693.84;5071035;28;20197;-78
2022/07/06 10:51:12;;;;;;;9.40;8.60;;;;;;;34.99;40.08;94690.97;5070329;28;20233;-79
2022/07/06 10:53:41;;;;;;;9.38;8.50;;;;;;;34.97;39.71;94685.09;5070817;28;20616;-79
2022/07/06 10:56:09;;;;;;;9.35;8.52;;;;;;;34.89;39.85;94679.41;5070799;28;20590;-79
2022/07/06 10:58:50;;;;;;;9.57;8.57;;;;;;;34.90;40.08;94694.25;5070539;28;20712;-80
2022/07/06 11:01:18;;;;;;;8.85;7.85;;;;;;;34.78;39.89;94683.28;5069528;28;20214;-78
2022/07/06 11:03:48;;;;;;;9.40;8.50;;;;;;;34.83;39.89;94677.88;5070352;28;20202;-79
2022/07/06 11:06:17;;;;;;;10.48;9.13;;;;;;;34.80;39.98;94678.47;5070265;28;20670;-79
2022/07/06 11:08:45;;;;;;;9.20;8.30;;;;;;;34.82;39.83;94680.84;5070385;28;20277;-79
2022/07/06 11:11:14;;;;;;;10.05;9.25;;;;;;;34.84;39.75;94684.78;5070075;28;20431;-78
2022/07/06 11:13:49;;;;;;;9.75;8.95;;;;;;;34.67;40.04;94668.59;5069095;28;20255;-76
2022/07/06 11:16:17;;;;;;;9.23;8.35;;;;;;;34.64;40.17;94674.50;5070164;28;20741;-77
2022/07/06 11:18:48;;;;;;;10.00;8.82;;;;;;;34.67;40.36;94684.53;5070188;28;20194;-76
2022/07/06 11:21:23;;;;;;;9.45;8.60;;;;;;;34.61;40.66;94683.03;5067881;28;20190;-78
2022/07/06 11:23:51;;;;;;;9.65;8.88;;;;;;;34.47;40.17;94669.69;5069993;28;20193;-78
2022/07/06 11:26:18;;;;;;;10.93;9.65;;;;;;;34.40;40.22;94674.53;5070419;28;20182;-79
2022/07/06 11:28:49;;;;;;;10.60;9.52;;;;;;;34.42;40.54;94680.38;5069924;28;20316;-79
2022/07/06 11:31:16;;;;;;;10.40;9.50;;;;;;;34.38;40.24;94676.72;5069713;28;20260;-79
2022/07/06 11:33:47;;;;;;;10.32;9.52;;;;;;;34.33;40.39;94677.56;5069716;28;20201;-78
2022/07/06 11:36:18;;;;;;;10.98;9.95;;;;;;;34.29;40.52;94676.56;5069530;28;20199;-78
2022/07/06 11:38:46;;;;;;;11.60;10.13;;;;;;;34.25;40.73;94675.56;5072461;28;20198;-78
2022/07/06 11:41:14;;;;;;;11.02;9.95;;;;;;;34.20;40.70;94663.16;5071135;28;20186;-79
2022/07/06 11:43:44;;;;;;;11.32;10.32;;;;;;;33.97;39.96;94629.47;5069889;28;20577;-85